Terminal Aerodrome Forecast
Issued by NWS Sioux Falls, SD

Home | Current Version | Previous Version | Text Only | Print | Product List | Glossary On
Versions: 1 2 3 4 5 6 7 8 9 10 11 12 13 14 15 16
000
FTUS43 KFSD 250208 AAB
TAFFSD
TAF AMD
KFSD 250208Z 2502/2524 11014KT P6SM VCTS SCT035CB BKN120
      TEMPO 2503/2505 5SM -TSRA
     FM250500 07010KT 6SM BR OVC020
     FM251600 06013KT P6SM OVC022
     FM252000 07013KT P6SM BKN035=

USA.gov is the U.S. government's official web portal to all federal, state and local government web resources and services.